KMML/MML METAR and TAF weather

Enter ICAO airport designator
Station Type Date Time Source
KMML METAR 2020/10/29 16:56 UTC NOAA

KMML 291656Z AUTO 04007KT 10SM FEW016 00/M05 A3019 RMK AO2 SLP242 T00001050 FZRANO


Station Type Date Time Source
KMML Decoded METAR 2020/10/29 16:56 UTC NOAA

Marshall, Southwest Minnesota Regional Airport - Marshall/Ryan Field, MN, United States (KMML) 44-27N 095-49W
Oct 29, 2020 - 12:56 PM EDT / 2020.10.29 1656 UTC
Wind: from the NE (040 degrees) at 8 MPH (7 KT):0
Visibility: 10 mile(s):0
Sky conditions: mostly clear
Temperature: 32.0 F (0.0 C)
Windchill: 24 F (-4 C):1
Dew Point: 23.0 F (-5.0 C)
Relative Humidity: 69%
Pressure (altimeter): 30.19 in. Hg (1022 hPa)
ob: KMML 291656Z AUTO 04007KT 10SM FEW016 00/M05 A3019 RMK AO2 SLP242 T00001050 FZRANO
cycle: 17

Station Type Date Time Source
KMML TAF UTC NOAA

Error!

Example: see airport list